Time;durP1;ratioP1;P1;durP2;ratioP2;P2;SDS_P1;SDS_P2;PMS_P1;PMS_P2;Temp;Humidity;BMP_temperature;BMP_pressure;BME280_temperature;BME280_humidity;BME280_pressure;Samples;Min_cycle;Max_cycle;Signal;HPM_P1;HPM_P2
2022/10/28 00:00:50;;;;;;;6.57;2.97;;;16.70;99.90;;;;;;7386606;19;20138;-76
2022/10/28 00:03:17;;;;;;;5.85;3.22;;;16.80;99.90;;;;;;7389066;19;20158;-75
2022/10/28 00:05:43;;;;;;;4.30;2.97;;;16.70;99.90;;;;;;7386991;19;20146;-76
2022/10/28 00:08:09;;;;;;;7.15;2.72;;;16.80;99.90;;;;;;7388695;19;20580;-75
2022/10/28 00:10:35;;;;;;;8.60;3.45;;;16.80;99.90;;;;;;7388297;19;20154;-76
2022/10/28 00:13:01;;;;;;;5.75;3.50;;;16.80;99.90;;;;;;7388487;19;20206;-75
2022/10/28 00:15:27;;;;;;;6.00;3.17;;;16.80;99.90;;;;;;7387616;19;20178;-75
2022/10/28 00:17:53;;;;;;;8.18;2.88;;;16.80;99.90;;;;;;7387456;19;20174;-75
2022/10/28 00:20:19;;;;;;;6.00;2.88;;;16.70;99.90;;;;;;7388254;19;20130;-75
2022/10/28 00:22:44;;;;;;;5.50;2.72;;;16.60;99.90;;;;;;7388992;19;20705;-75
2022/10/28 00:25:10;;;;;;;4.18;2.83;;;16.30;99.90;;;;;;7383858;19;20215;-75
2022/10/28 00:27:36;;;;;;;3.97;2.67;;;16.10;99.90;;;;;;7388931;19;20218;-75
2022/10/28 00:30:03;;;;;;;5.75;2.90;;;16.20;99.90;;;;;;7388602;19;20130;-76
2022/10/28 00:32:30;;;;;;;4.93;2.90;;;16.30;99.90;;;;;;7388690;19;20651;-76
2022/10/28 00:34:55;;;;;;;4.88;2.75;;;16.50;99.90;;;;;;7386787;19;20138;-76
2022/10/28 00:37:21;;;;;;;5.75;2.65;;;16.50;99.90;;;;;;7387997;19;20131;-76
2022/10/28 00:39:47;;;;;;;6.05;2.92;;;16.40;99.90;;;;;;7386660;19;20793;-76
2022/10/28 00:42:17;;;;;;;4.55;2.42;;;16.40;99.90;;;;;;7388638;19;20138;-75
2022/10/28 00:44:56;;;;;;;6.68;2.55;;;16.40;99.90;;;;;;7388897;19;20190;-74
2022/10/28 00:47:42;;;;;;;8.15;2.75;;;16.50;99.90;;;;;;7389517;19;20147;-75
2022/10/28 00:50:12;;;;;;;7.43;2.70;;;16.50;99.90;;;;;;7389519;19;20142;-75
2022/10/28 00:52:39;;;;;;;6.97;2.90;;;16.60;99.90;;;;;;7389293;19;20499;-76
2022/10/28 00:55:06;;;;;;;5.25;3.17;;;16.60;99.90;;;;;;7390843;19;20135;-75
2022/10/28 00:57:36;;;;;;;6.57;3.05;;;16.70;99.90;;;;;;7388481;19;20154;-76
2022/10/28 01:00:06;;;;;;;6.97;2.75;;;16.70;99.90;;;;;;7388136;19;21858;-76
2022/10/28 01:02:40;;;;;;;8.07;2.80;;;16.50;99.90;;;;;;7385525;19;20137;-75
2022/10/28 01:05:06;;;;;;;6.70;3.22;;;16.50;99.90;;;;;;7385252;19;20205;-74
2022/10/28 01:07:35;;;;;;;6.55;3.45;;;16.50;99.90;;;;;;7395494;19;20489;-74
2022/10/28 01:10:01;;;;;;;4.90;2.72;;;16.50;99.90;;;;;;7392069;19;20126;-74
2022/10/28 01:12:48;;;;;;;4.45;2.72;;;16.40;99.90;;;;;;7392193;19;20615;-74
2022/10/28 01:15:43;;;;;;;5.55;2.63;;;16.50;99.90;;;;;;7395003;19;20192;-74
2022/10/28 01:18:24;;;;;;;5.18;3.17;;;16.30;99.90;;;;;;7393001;19;20151;-74
2022/10/28 01:21:17;;;;;;;6.50;3.50;;;16.30;99.90;;;;;;7395407;19;20142;-74
2022/10/28 01:24:14;;;;;;;8.25;3.80;;;16.40;99.90;;;;;;7394579;19;20664;-75
2022/10/28 01:26:49;;;;;;;6.15;3.00;;;16.50;99.90;;;;;;7393031;19;20549;-74
2022/10/28 01:29:35;;;;;;;7.90;3.55;;;16.50;99.90;;;;;;7395222;19;20130;-74
2022/10/28 01:32:10;;;;;;;4.32;2.90;;;16.60;99.90;;;;;;7393936;19;20129;-75
2022/10/28 01:35:04;;;;;;;5.50;2.90;;;16.60;99.90;;;;;;7393282;19;20134;-75
2022/10/28 01:37:48;;;;;;;5.85;2.65;;;16.60;99.90;;;;;;7394766;19;20180;-74
2022/10/28 01:40:16;;;;;;;6.72;2.38;;;16.60;99.90;;;;;;7394884;19;20131;-73
2022/10/28 01:42:48;;;;;;;4.75;2.63;;;16.50;99.90;;;;;;7393459;19;20589;-74
2022/10/28 01:45:21;;;;;;;5.80;3.08;;;16.10;99.90;;;;;;7395379;19;20214;-75
2022/10/28 01:48:14;;;;;;;5.97;3.28;;;16.10;99.90;;;;;;7384951;19;20221;-74
2022/10/28 01:50:41;;;;;;;6.13;2.75;;;16.20;99.90;;;;;;7393667;19;20235;-72
2022/10/28 01:53:12;;;;;;;10.57;2.58;;;16.20;99.90;;;;;;7391217;19;20556;-74
2022/10/28 01:55:41;;;;;;;3.50;2.58;;;16.20;99.90;;;;;;7394239;19;20143;-73
2022/10/28 01:58:11;;;;;;;10.45;2.72;;;16.20;99.90;;;;;;7393598;19;20178;-74
2022/10/28 02:00:37;;;;;;;4.55;2.80;;;16.40;99.90;;;;;;7392357;19;20134;-74
2022/10/28 02:03:08;;;;;;;5.75;2.47;;;16.40;99.90;;;;;;7390704;19;20543;-75
2022/10/28 02:05:37;;;;;;;4.20;2.50;;;16.30;99.90;;;;;;7391418;19;20255;-75
2022/10/28 02:08:20;;;;;;;4.53;2.63;;;16.20;99.90;;;;;;7392899;19;20150;-74
2022/10/28 02:11:07;;;;;;;6.47;2.63;;;16.20;99.90;;;;;;7394020;19;20742;-74
2022/10/28 02:13:50;;;;;;;5.38;2.90;;;16.30;99.90;;;;;;7391329;19;20161;-74
2022/10/28 02:16:28;;;;;;;6.78;2.65;;;16.30;99.90;;;;;;7392727;19;20547;-74
2022/10/28 02:19:22;;;;;;;7.78;2.75;;;16.30;99.90;;;;;;7391260;19;20174;-74
2022/10/28 02:22:14;;;;;;;4.82;2.80;;;16.10;99.90;;;;;;7393952;19;20812;-73
2022/10/28 02:24:49;;;;;;;3.97;2.85;;;16.10;99.90;;;;;;7393382;19;20138;-74
2022/10/28 02:27:33;;;;;;;6.95;3.10;;;16.10;99.90;;;;;;7391394;19;20154;-74
2022/10/28 02:30:22;;;;;;;6.22;2.75;;;16.10;99.90;;;;;;7394875;19;20150;-74
2022/10/28 02:33:00;;;;;;;7.95;2.85;;;16.20;99.90;;;;;;7390521;19;20155;-75
2022/10/28 02:35:42;;;;;;;4.95;2.70;;;16.20;99.90;;;;;;7393053;19;20134;-74
2022/10/28 02:38:17;;;;;;;4.20;2.53;;;16.20;99.90;;;;;;7390319;19;20150;-75
2022/10/28 02:40:49;;;;;;;3.85;2.45;;;16.20;99.90;;;;;;7392288;19;20215;-74
2022/10/28 02:43:18;;;;;;;6.07;2.63;;;16.20;99.90;;;;;;7393381;19;20154;-76
2022/10/28 02:45:48;;;;;;;4.97;2.30;;;16.20;99.90;;;;;;7393138;19;20172;-76
2022/10/28 02:48:37;;;;;;;8.02;2.83;;;16.20;99.90;;;;;;7390814;19;20221;-75
2022/10/28 02:51:12;;;;;;;5.22;2.67;;;16.00;99.90;;;;;;7388758;19;20130;-75
2022/10/28 02:53:51;;;;;;;4.57;2.72;;;16.20;99.90;;;;;;7390379;19;20146;-76
2022/10/28 02:56:19;;;;;;;7.57;2.50;;;16.10;99.90;;;;;;7393101;19;20142;-76
2022/10/28 02:58:45;;;;;;;6.22;2.97;;;16.10;99.90;;;;;;7393459;19;20619;-76
2022/10/28 03:01:11;;;;;;;3.72;2.40;;;16.20;99.90;;;;;;7395955;19;20143;-75
2022/10/28 03:03:36;;;;;;;6.10;2.75;;;16.20;99.90;;;;;;7394748;19;20219;-75
2022/10/28 03:06:02;;;;;;;5.93;2.58;;;15.90;99.90;;;;;;7396026;19;20139;-76
2022/10/28 03:08:28;;;;;;;6.85;2.60;;;16.00;99.90;;;;;;7399686;19;20138;-76
2022/10/28 03:10:54;;;;;;;6.32;3.13;;;16.00;99.90;;;;;;7400559;19;20149;-75
2022/10/28 03:13:19;;;;;;;5.22;2.90;;;16.00;99.90;;;;;;7405528;19;20131;-75
2022/10/28 03:15:46;;;;;;;5.28;2.65;;;16.00;99.90;;;;;;7401565;19;20150;-76
2022/10/28 03:18:11;;;;;;;5.53;3.05;;;16.10;99.90;;;;;;7397516;19;20815;-76
2022/10/28 03:20:37;;;;;;;6.90;3.85;;;16.10;99.90;;;;;;7401968;19;20150;-75
2022/10/28 03:23:03;;;;;;;5.22;3.10;;;16.10;99.90;;;;;;7401059;19;20139;-75
2022/10/28 03:25:29;;;;;;;4.85;2.80;;;16.00;99.90;;;;;;7397510;19;20159;-76
2022/10/28 03:27:54;;;;;;;8.45;3.38;;;16.20;99.90;;;;;;7390693;19;20150;-75
2022/10/28 03:30:20;;;;;;;9.70;3.33;;;16.20;99.90;;;;;;7393289;19;20138;-76
2022/10/28 03:32:46;;;;;;;5.43;2.95;;;16.10;99.90;;;;;;7391053;19;20135;-75
2022/10/28 03:35:12;;;;;;;4.05;2.90;;;16.10;99.90;;;;;;7393004;19;20468;-76
2022/10/28 03:37:42;;;;;;;5.10;3.28;;;16.10;99.90;;;;;;7387712;19;20146;-75
2022/10/28 03:40:09;;;;;;;8.52;3.65;;;16.10;99.90;;;;;;7389705;19;20257;-76
2022/10/28 03:42:35;;;;;;;8.02;2.97;;;16.10;99.90;;;;;;7388935;19;20624;-75
2022/10/28 03:45:00;;;;;;;8.50;2.88;;;15.90;99.90;;;;;;7388488;19;20170;-75
2022/10/28 03:47:26;;;;;;;7.35;3.35;;;15.80;99.90;;;;;;7388385;19;20280;-76
2022/10/28 03:49:52;;;;;;;5.43;2.80;;;15.90;99.90;;;;;;7392078;19;20155;-76
2022/10/28 03:52:17;;;;;;;6.20;3.35;;;16.10;99.90;;;;;;7388411;19;20225;-76
2022/10/28 03:54:43;;;;;;;6.32;3.08;;;16.00;99.90;;;;;;7389464;19;20159;-76
2022/10/28 03:57:09;;;;;;;5.28;2.95;;;16.00;99.90;;;;;;7388462;19;20162;-75
2022/10/28 03:59:35;;;;;;;5.43;2.97;;;16.00;99.90;;;;;;7387345;19;20154;-76
2022/10/28 04:02:00;;;;;;;7.05;2.53;;;16.10;99.90;;;;;;7389458;19;20138;-77
2022/10/28 04:04:26;;;;;;;9.80;3.50;;;16.10;99.90;;;;;;7387631;19;20482;-76
2022/10/28 04:06:52;;;;;;;7.75;3.15;;;16.10;99.90;;;;;;7388656;19;20622;-78
2022/10/28 04:09:18;;;;;;;6.50;2.60;;;15.80;99.90;;;;;;7387588;19;20150;-76
2022/10/28 04:11:48;;;;;;;7.93;3.58;;;15.90;99.90;;;;;;7387617;19;20131;-75
2022/10/28 04:14:14;;;;;;;4.30;2.90;;;15.70;99.90;;;;;;7388954;19;20195;-75
2022/10/28 04:16:39;;;;;;;7.15;2.80;;;15.90;99.90;;;;;;7391352;19;20983;-76
2022/10/28 04:19:06;;;;;;;3.85;2.80;;;16.00;99.90;;;;;;7386280;19;20974;-77
2022/10/28 04:21:32;;;;;;;5.18;2.97;;;16.10;99.90;;;;;;7388120;19;20157;-77
2022/10/28 04:23:58;;;;;;;5.18;2.65;;;16.10;99.90;;;;;;7387278;19;20167;-75
2022/10/28 04:26:24;;;;;;;6.18;2.83;;;16.10;99.90;;;;;;7389999;19;20139;-75
2022/10/28 04:28:49;;;;;;;8.65;3.10;;;16.10;99.90;;;;;;7386105;19;20158;-75
2022/10/28 04:31:15;;;;;;;4.70;2.90;;;16.10;99.90;;;;;;7388384;19;20139;-76
2022/10/28 04:33:41;;;;;;;6.38;2.72;;;16.10;99.90;;;;;;7388699;19;20150;-76
2022/10/28 04:36:07;;;;;;;6.88;3.05;;;16.10;99.90;;;;;;7386186;19;20151;-76
2022/10/28 04:38:33;;;;;;;6.60;3.25;;;16.00;99.90;;;;;;7388879;19;20165;-75
2022/10/28 04:40:59;;;;;;;5.13;3.10;;;15.90;99.90;;;;;;7393851;19;20157;-76
2022/10/28 04:43:25;;;;;;;5.18;2.75;;;16.00;99.90;;;;;;7395720;19;20170;-76
2022/10/28 04:45:51;;;;;;;5.32;3.13;;;16.00;99.90;;;;;;7396399;19;20703;-76
2022/10/28 04:48:17;;;;;;;4.13;3.03;;;16.10;99.90;;;;;;7394368;19;20143;-76
2022/10/28 04:50:44;;;;;;;4.75;2.83;;;16.10;99.90;;;;;;7394834;19;20150;-76
2022/10/28 04:53:11;;;;;;;7.63;2.97;;;16.20;99.90;;;;;;7396073;19;20477;-76
2022/10/28 04:55:37;;;;;;;7.00;3.92;;;16.00;99.90;;;;;;7396965;19;20158;-77
2022/10/28 04:58:03;;;;;;;4.38;3.05;;;15.90;99.90;;;;;;7394986;19;20158;-76
2022/10/28 05:00:29;;;;;;;8.65;3.42;;;15.90;99.90;;;;;;7394862;19;20143;-76
2022/10/28 05:02:55;;;;;;;10.95;3.42;;;15.90;99.90;;;;;;7392283;19;20178;-75
2022/10/28 05:05:21;;;;;;;8.05;3.17;;;15.90;99.90;;;;;;7391986;19;20893;-75
2022/10/28 05:07:47;;;;;;;6.20;2.85;;;15.90;99.90;;;;;;7395008;19;20149;-75
2022/10/28 05:10:16;;;;;;;10.13;3.63;;;16.10;99.90;;;;;;7397504;19;20243;-75
2022/10/28 05:12:43;;;;;;;7.72;3.30;;;16.10;99.90;;;;;;7396565;19;20154;-76
2022/10/28 05:15:10;;;;;;;5.10;3.20;;;16.40;99.90;;;;;;7398117;19;20138;-76
2022/10/28 05:17:44;;;;;;;6.60;3.22;;;16.30;99.90;;;;;;7401349;19;20151;-76
2022/10/28 05:20:11;;;;;;;6.28;3.00;;;16.40;99.90;;;;;;7402294;19;20262;-76
2022/10/28 05:22:37;;;;;;;6.85;3.17;;;16.40;99.90;;;;;;7402617;19;20178;-76
2022/10/28 05:25:04;;;;;;;7.47;3.10;;;16.30;99.90;;;;;;7401933;19;20154;-76
2022/10/28 05:27:30;;;;;;;6.72;3.28;;;16.20;99.90;;;;;;7396687;19;20156;-77
2022/10/28 05:29:55;;;;;;;10.40;3.30;;;16.20;99.90;;;;;;7398091;19;20150;-76
2022/10/28 05:32:21;;;;;;;5.78;2.97;;;16.10;99.90;;;;;;7392892;19;20242;-76
2022/10/28 05:34:47;;;;;;;7.20;3.53;;;16.10;99.90;;;;;;7391394;19;20745;-75
2022/10/28 05:37:13;;;;;;;3.78;2.85;;;16.30;99.90;;;;;;7390840;19;20143;-76
2022/10/28 05:39:38;;;;;;;6.10;3.05;;;15.80;99.90;;;;;;7388596;19;20147;-76
2022/10/28 05:42:04;;;;;;;4.32;2.80;;;15.90;99.90;;;;;;7391643;19;20139;-76
2022/10/28 05:44:30;;;;;;;6.28;3.20;;;15.80;99.90;;;;;;7392392;19;20509;-76
2022/10/28 05:46:56;;;;;;;6.65;2.97;;;15.90;99.90;;;;;;7393739;19;20146;-76
2022/10/28 05:49:22;;;;;;;7.60;3.30;;;15.60;99.90;;;;;;7392502;19;20154;-76
2022/10/28 05:51:47;;;;;;;6.97;3.33;;;15.40;99.90;;;;;;7392897;19;20234;-76
2022/10/28 05:54:13;;;;;;;5.22;3.35;;;15.30;99.90;;;;;;7392060;19;20226;-76
2022/10/28 05:56:39;;;;;;;5.35;2.90;;;15.40;99.90;;;;;;7393251;19;20603;-76
2022/10/28 05:59:05;;;;;;;7.95;3.20;;;15.60;99.90;;;;;;7395061;19;20138;-75
2022/10/28 06:01:31;;;;;;;8.40;3.05;;;15.80;99.90;;;;;;7392685;19;20143;-77
2022/10/28 06:03:58;;;;;;;7.43;3.65;;;15.90;99.90;;;;;;7391813;19;20199;-76
2022/10/28 06:06:23;;;;;;;4.18;3.05;;;16.00;99.90;;;;;;7397824;19;20146;-77
2022/10/28 06:08:49;;;;;;;9.95;3.72;;;16.00;99.90;;;;;;7393410;19;20141;-77
2022/10/28 06:11:15;;;;;;;6.05;3.53;;;16.10;99.90;;;;;;7395072;19;20138;-76
2022/10/28 06:13:41;;;;;;;6.80;3.08;;;16.00;99.90;;;;;;7393935;19;20153;-76
2022/10/28 06:16:07;;;;;;;6.97;3.63;;;15.90;99.90;;;;;;7392187;19;20492;-76
2022/10/28 06:18:33;;;;;;;6.50;3.95;;;16.00;99.90;;;;;;7388421;19;20549;-77
2022/10/28 06:20:59;;;;;;;9.82;3.65;;;16.20;99.90;;;;;;7389302;19;20147;-78
2022/10/28 06:23:27;;;;;;;6.72;4.47;;;16.20;99.90;;;;;;7385969;19;20151;-76
2022/10/28 06:26:01;;;;;;;7.50;3.58;;;16.10;99.90;;;;;;7389193;19;20143;-77
2022/10/28 06:28:27;;;;;;;7.50;3.40;;;16.10;99.90;;;;;;7387064;19;20162;-76
2022/10/28 06:30:53;;;;;;;7.78;3.97;;;16.20;99.90;;;;;;7388457;19;20153;-76
2022/10/28 06:33:19;;;;;;;7.63;3.35;;;16.10;99.90;;;;;;7389988;19;20156;-76
2022/10/28 06:35:45;;;;;;;5.03;3.53;;;16.20;99.90;;;;;;7391786;19;20170;-76
2022/10/28 06:38:11;;;;;;;5.28;3.33;;;16.30;99.90;;;;;;7390809;19;20556;-76
2022/10/28 06:40:36;;;;;;;5.95;4.03;;;16.10;99.90;;;;;;7392530;19;20158;-77
2022/10/28 06:43:06;;;;;;;10.60;4.05;;;16.10;99.90;;;;;;7392253;19;20581;-77
2022/10/28 06:45:33;;;;;;;8.00;3.67;;;16.10;99.90;;;;;;7391362;19;20143;-77
2022/10/28 06:48:01;;;;;;;10.50;3.80;;;16.20;99.90;;;;;;7391318;19;20127;-76
2022/10/28 06:50:29;;;;;;;8.45;3.67;;;16.20;99.90;;;;;;7390461;19;20139;-77
2022/10/28 06:52:56;;;;;;;6.60;3.20;;;16.10;99.90;;;;;;7389293;19;20166;-77
2022/10/28 06:55:22;;;;;;;6.90;4.00;;;16.10;99.90;;;;;;7389439;19;20154;-76
2022/10/28 06:57:48;;;;;;;9.63;3.65;;;16.20;99.90;;;;;;7392080;19;20150;-76
2022/10/28 07:00:14;;;;;;;13.32;4.30;;;16.20;99.90;;;;;;7387920;19;20600;-76
2022/10/28 07:02:40;;;;;;;9.18;3.88;;;16.30;99.90;;;;;;7389275;19;20155;-76
2022/10/28 07:05:08;;;;;;;7.93;3.67;;;16.20;99.90;;;;;;7395724;19;20135;-76
2022/10/28 07:07:37;;;;;;;10.63;4.22;;;16.20;99.90;;;;;;7394608;19;20154;-76
2022/10/28 07:10:05;;;;;;;9.23;4.30;;;16.40;99.90;;;;;;7395716;19;20198;-77
2022/10/28 07:12:33;;;;;;;9.63;4.20;;;16.20;99.90;;;;;;7396692;19;20540;-77
2022/10/28 07:15:01;;;;;;;8.13;4.13;;;16.00;99.90;;;;;;7394154;19;20166;-77
2022/10/28 07:17:28;;;;;;;6.40;3.75;;;16.10;99.90;;;;;;7397130;19;20150;-76
2022/10/28 07:19:55;;;;;;;9.80;3.92;;;16.00;99.90;;;;;;7396491;19;20632;-77
2022/10/28 07:22:23;;;;;;;8.60;3.75;;;16.10;99.90;;;;;;7398642;19;20161;-77
2022/10/28 07:24:53;;;;;;;7.30;3.35;;;16.10;99.90;;;;;;7398671;19;20531;-76
2022/10/28 07:27:22;;;;;;;9.95;4.70;;;16.30;99.90;;;;;;7399577;19;20153;-77
2022/10/28 07:29:50;;;;;;;5.10;3.65;;;16.20;99.90;;;;;;7403397;19;20210;-77
2022/10/28 07:32:19;;;;;;;7.15;3.50;;;16.30;99.90;;;;;;7395122;19;20197;-77
2022/10/28 07:34:47;;;;;;;8.20;3.33;;;16.30;99.90;;;;;;7393585;19;20478;-77
2022/10/28 07:37:13;;;;;;;6.13;4.22;;;16.30;99.90;;;;;;7392418;19;20150;-77
2022/10/28 07:39:39;;;;;;;6.70;4.22;;;16.40;99.90;;;;;;7390009;19;20137;-78
2022/10/28 07:42:05;;;;;;;7.35;4.68;;;16.50;99.90;;;;;;7391832;19;20174;-77
2022/10/28 07:44:31;;;;;;;9.65;3.58;;;16.60;99.90;;;;;;7391344;19;20230;-78
2022/10/28 07:46:56;;;;;;;7.85;3.80;;;16.60;99.90;;;;;;7392573;19;20139;-79
2022/10/28 07:49:25;;;;;;;6.88;3.97;;;16.60;99.90;;;;;;7390791;19;20141;-78
2022/10/28 07:51:53;;;;;;;5.25;3.38;;;16.60;99.90;;;;;;7395925;19;20150;-77
2022/10/28 07:54:20;;;;;;;6.70;3.58;;;16.50;99.90;;;;;;7391216;19;20143;-78
2022/10/28 07:56:46;;;;;;;7.25;3.78;;;16.60;99.90;;;;;;7391914;19;20579;-76
2022/10/28 07:59:12;;;;;;;6.90;3.58;;;16.60;99.90;;;;;;7389717;19;20126;-77
2022/10/28 08:01:37;;;;;;;9.40;4.57;;;16.60;99.90;;;;;;7391730;19;20861;-77
2022/10/28 08:04:03;;;;;;;11.77;3.78;;;16.50;99.90;;;;;;7388385;19;20150;-77
2022/10/28 08:06:33;;;;;;;6.28;3.47;;;16.50;99.90;;;;;;7395869;19;20514;-77
2022/10/28 08:09:02;;;;;;;10.32;4.03;;;16.50;99.90;;;;;;7392079;19;20579;-78
2022/10/28 08:11:28;;;;;;;6.85;4.15;;;16.60;99.90;;;;;;7396144;19;20532;-77
2022/10/28 08:13:55;;;;;;;10.07;3.97;;;16.70;99.90;;;;;;7391631;19;20159;-77
2022/10/28 08:16:21;;;;;;;10.70;4.65;;;16.80;99.90;;;;;;7390854;19;20206;-78
2022/10/28 08:18:46;;;;;;;11.43;4.20;;;16.80;99.90;;;;;;7388362;19;20158;-77
2022/10/28 08:21:13;;;;;;;7.63;3.53;;;16.90;99.90;;;;;;7391571;19;20787;-78
2022/10/28 08:23:40;;;;;;;10.70;3.63;;;16.90;99.90;;;;;;7390062;19;20158;-79
2022/10/28 08:26:07;;;;;;;8.32;4.32;;;17.00;99.90;;;;;;7392052;19;20233;-77
2022/10/28 08:28:32;;;;;;;9.52;4.28;;;17.10;99.90;;;;;;7389916;19;20237;-78
2022/10/28 08:31:00;;;;;;;7.68;3.72;;;17.10;99.90;;;;;;7391622;19;20275;-77
2022/10/28 08:33:26;;;;;;;15.13;4.65;;;17.10;99.90;;;;;;7390399;19;20499;-77
2022/10/28 08:35:51;;;;;;;8.68;4.70;;;17.10;99.90;;;;;;7391097;19;20142;-78
2022/10/28 08:38:17;;;;;;;11.23;4.03;;;17.10;99.90;;;;;;7390181;19;20146;-78
2022/10/28 08:40:43;;;;;;;6.63;3.92;;;17.20;99.90;;;;;;7391963;19;20174;-77
2022/10/28 08:43:25;;;;;;;11.20;6.32;;;17.20;99.90;;;;;;7391548;19;20134;-78
2022/10/28 08:46:00;;;;;;;14.30;4.70;;;17.20;99.90;;;;;;7390907;19;20534;-78
2022/10/28 08:48:33;;;;;;;10.52;4.13;;;17.20;99.90;;;;;;7388028;19;20185;-78
2022/10/28 08:51:08;;;;;;;12.40;5.38;;;17.30;99.90;;;;;;7387197;19;20166;-78
2022/10/28 08:53:43;;;;;;;12.30;5.07;;;17.20;99.90;;;;;;7387988;19;20154;-78
2022/10/28 08:56:32;;;;;;;8.20;4.10;;;17.20;99.90;;;;;;7386617;19;20213;-77
2022/10/28 08:59:00;;;;;;;10.43;4.28;;;17.30;99.90;;;;;;7384034;19;20155;-77
2022/10/28 09:01:41;;;;;;;9.02;4.53;;;17.30;99.90;;;;;;7388679;19;20131;-77
2022/10/28 09:04:35;;;;;;;6.72;3.92;;;17.40;99.90;;;;;;7385886;19;20197;-78
2022/10/28 09:07:02;;;;;;;8.60;3.47;;;17.50;99.90;;;;;;7385639;19;20154;-78
2022/10/28 09:09:29;;;;;;;9.00;3.88;;;17.50;99.90;;;;;;7385970;19;20154;-78
2022/10/28 09:12:06;;;;;;;6.95;3.28;;;17.70;99.90;;;;;;7385558;19;20218;-77
2022/10/28 09:14:57;;;;;;;9.07;3.95;;;17.70;99.90;;;;;;7387373;19;20167;-77
2022/10/28 09:17:29;;;;;;;10.65;4.63;;;17.80;99.90;;;;;;7387549;19;20142;-77
2022/10/28 09:20:15;;;;;;;11.68;4.20;;;17.70;99.90;;;;;;7384382;19;20162;-77
2022/10/28 09:22:49;;;;;;;10.73;3.70;;;17.80;99.90;;;;;;7385420;19;20146;-78
2022/10/28 09:25:38;;;;;;;6.50;3.50;;;17.80;99.90;;;;;;7385623;19;20142;-77
2022/10/28 09:28:06;;;;;;;17.58;3.85;;;17.80;99.90;;;;;;7393599;19;20357;-77
2022/10/28 09:31:02;;;;;;;7.30;3.60;;;17.60;99.90;;;;;;7393718;19;20170;-77
2022/10/28 09:33:39;;;;;;;4.60;3.03;;;17.60;99.90;;;;;;7393950;19;20142;-78
2022/10/28 09:36:11;;;;;;;7.85;3.63;;;17.70;99.90;;;;;;7391994;19;20170;-78
2022/10/28 09:38:38;;;;;;;6.35;3.15;;;17.80;99.90;;;;;;7392871;19;20226;-77
2022/10/28 09:41:13;;;;;;;6.55;3.13;;;17.90;99.90;;;;;;7393350;19;20716;-77
2022/10/28 09:44:05;;;;;;;9.15;3.78;;;18.00;99.90;;;;;;7393828;19;20134;-76
2022/10/28 09:46:31;;;;;;;5.47;3.08;;;17.90;99.90;;;;;;7395306;19;20644;-76
2022/10/28 09:49:02;;;;;;;6.40;3.38;;;17.80;99.90;;;;;;7391908;19;20254;-77
2022/10/28 09:51:34;;;;;;;7.88;3.45;;;17.80;99.90;;;;;;7394576;19;20154;-78
2022/10/28 09:54:01;;;;;;;8.27;4.20;;;17.80;99.90;;;;;;7395124;19;20525;-77
2022/10/28 09:56:28;;;;;;;9.15;3.97;;;17.90;99.90;;;;;;7397399;19;20649;-78
2022/10/28 09:58:59;;;;;;;10.80;4.43;;;17.90;99.90;;;;;;7393196;19;20162;-78
2022/10/28 10:01:41;;;;;;;9.63;3.65;;;18.00;99.90;;;;;;7396515;19;20608;-77
2022/10/28 10:04:22;;;;;;;10.32;4.55;;;18.20;99.90;;;;;;7398251;19;20191;-76
2022/10/28 10:06:58;;;;;;;13.30;4.50;;;18.40;99.90;;;;;;7403449;19;20163;-78
2022/10/28 10:09:27;;;;;;;10.20;4.05;;;18.70;99.90;;;;;;7399376;19;20153;-77
2022/10/28 10:12:01;;;;;;;7.35;3.55;;;18.80;99.90;;;;;;7396303;19;20145;-77
2022/10/28 10:14:44;;;;;;;5.90;3.47;;;18.80;99.90;;;;;;7399929;19;20136;-77
2022/10/28 10:17:16;;;;;;;9.43;3.30;;;18.90;99.90;;;;;;7397115;19;20138;-76
2022/10/28 10:20:00;;;;;;;6.00;3.38;;;19.00;99.90;;;;;;7390055;19;20150;-78
2022/10/28 10:22:43;;;;;;;5.97;3.33;;;19.00;99.90;;;;;;7393265;19;20162;-77
2022/10/28 10:25:22;;;;;;;7.30;3.75;;;19.00;99.90;;;;;;7391619;19;20150;-77
2022/10/28 10:28:13;;;;;;;10.30;3.40;;;19.00;99.90;;;;;;7391536;19;20154;-76
2022/10/28 10:30:48;;;;;;;8.75;3.17;;;19.00;99.90;;;;;;7394743;19;20161;-77
2022/10/28 10:33:27;;;;;;;7.50;3.30;;;19.10;99.90;;;;;;7390916;19;20500;-77
2022/10/28 10:36:13;;;;;;;9.63;3.20;;;19.20;99.90;;;;;;7392988;19;20138;-77
2022/10/28 10:38:46;;;;;;;6.28;3.13;;;19.20;99.90;;;;;;7389434;19;20142;-78
2022/10/28 10:41:39;;;;;;;7.10;3.00;;;19.30;99.90;;;;;;7393228;19;20508;-77
2022/10/28 10:44:20;;;;;;;7.65;3.20;;;19.50;99.90;;;;;;7390326;19;20165;-79
2022/10/28 10:47:09;;;;;;;7.55;3.85;;;19.60;99.90;;;;;;7390687;19;20162;-76
2022/10/28 10:49:35;;;;;;;7.60;3.47;;;19.60;99.90;;;;;;7391160;19;20619;-77
2022/10/28 10:52:06;;;;;;;7.38;3.30;;;19.40;99.90;;;;;;7392446;19;20142;-78
2022/10/28 10:54:33;;;;;;;11.27;3.38;;;19.40;99.90;;;;;;7390322;19;20168;-77
2022/10/28 10:57:19;;;;;;;9.52;3.20;;;19.50;99.90;;;;;;7390384;19;20158;-77
2022/10/28 10:59:48;;;;;;;7.90;3.20;;;19.30;99.90;;;;;;7388540;19;20154;-77
2022/10/28 11:02:36;;;;;;;11.70;3.30;;;19.30;99.90;;;;;;7392206;19;20218;-78
2022/10/28 11:05:08;;;;;;;5.05;2.90;;;19.30;99.90;;;;;;7391122;19;20162;-78
2022/10/28 11:07:36;;;;;;;6.60;3.30;;;19.30;99.90;;;;;;7390972;19;20157;-79
2022/10/28 11:10:02;;;;;;;10.32;3.60;;;19.30;99.90;;;;;;7397154;19;20153;-77
2022/10/28 11:12:37;;;;;;;9.80;3.42;;;19.40;99.90;;;;;;7397630;19;20209;-77
2022/10/28 11:15:15;;;;;;;7.25;3.63;;;19.30;99.90;;;;;;7388008;19;20142;-77
2022/10/28 11:17:57;;;;;;;7.03;3.20;;;19.40;99.90;;;;;;7390655;19;20135;-77
2022/10/28 11:20:39;;;;;;;9.88;3.33;;;19.70;99.90;;;;;;7387052;19;20142;-77
2022/10/28 11:23:29;;;;;;;5.75;3.17;;;19.70;99.90;;;;;;7389520;19;20690;-78
2022/10/28 11:26:01;;;;;;;6.78;2.97;;;19.80;99.90;;;;;;7388614;19;20131;-78
2022/10/28 11:28:55;;;;;;;5.72;2.88;;;19.80;99.90;;;;;;7389303;19;20143;-76
2022/10/28 11:31:35;;;;;;;8.77;2.28;;;19.60;99.90;;;;;;7390124;19;20158;-78
2022/10/28 11:34:29;;;;;;;4.55;2.28;;;19.60;99.90;;;;;;7391436;19;20165;-78
2022/10/28 11:37:08;;;;;;;5.30;2.15;;;19.60;99.90;;;;;;7388943;19;20158;-78
2022/10/28 11:39:40;;;;;;;5.88;2.40;;;19.70;99.90;;;;;;7386844;19;20623;-79
2022/10/28 11:42:25;;;;;;;8.38;2.60;;;19.70;99.90;;;;;;7391032;19;20158;-77
2022/10/28 11:45:02;;;;;;;9.55;3.67;;;19.70;99.90;;;;;;7389815;19;20154;-78
2022/10/28 11:47:42;;;;;;;8.18;4.38;;;19.70;99.90;;;;;;7390879;19;20158;-78
2022/10/28 11:50:37;;;;;;;10.15;4.75;;;19.60;99.90;;;;;;7387622;19;20146;-78
2022/10/28 11:53:40;;;;;;;5.82;2.97;;;19.50;99.90;;;;;;7391170;19;20491;-77
2022/10/28 11:56:11;;;;;;;4.30;2.50;;;19.40;99.90;;;;;;7391832;19;20131;-77
2022/10/28 11:58:51;;;;;;;5.43;2.60;;;19.50;99.90;;;;;;7388526;19;20215;-77
2022/10/28 12:01:29;;;;;;;6.60;2.58;;;19.50;99.90;;;;;;7390155;19;20514;-78
2022/10/28 12:04:13;;;;;;;7.30;3.47;;;19.60;99.90;;;;;;7387380;19;20639;-77
2022/10/28 12:07:23;;;;;;;5.78;2.90;;;19.80;99.90;;;;;;7390533;19;20747;-78
2022/10/28 12:10:22;;;;;;;5.72;2.47;;;19.70;99.90;;;;;;7392155;19;20185;-77
2022/10/28 12:13:10;;;;;;;5.88;3.50;;;19.70;99.90;;;;;;7391684;19;20151;-77
2022/10/28 12:15:44;;;;;;;5.03;2.88;;;19.70;99.90;;;;;;7391363;19;20631;-79
2022/10/28 12:18:25;;;;;;;5.55;3.28;;;20.00;99.90;;;;;;7390811;19;20154;-77
2022/10/28 12:20:54;;;;;;;7.85;2.80;;;20.00;99.90;;;;;;7393803;19;20145;-78
2022/10/28 12:23:23;;;;;;;4.57;2.30;;;20.10;99.90;;;;;;7396585;19;20143;-77
2022/10/28 12:25:53;;;;;;;4.85;2.50;;;20.20;99.90;;;;;;7397667;19;20131;-78
2022/10/28 12:28:32;;;;;;;6.30;2.63;;;20.30;99.90;;;;;;7397597;19;20214;-76
2022/10/28 12:30:59;;;;;;;5.55;2.28;;;20.30;99.90;;;;;;7398989;19;20481;-77
2022/10/28 12:33:31;;;;;;;5.80;2.90;;;20.50;99.90;;;;;;7399106;19;20147;-78
2022/10/28 12:36:18;;;;;;;5.47;2.55;;;20.70;99.90;;;;;;7400344;19;20126;-78
2022/10/28 12:38:55;;;;;;;6.57;3.20;;;20.60;99.90;;;;;;7389646;19;20146;-77
2022/10/28 12:41:51;;;;;;;5.88;2.60;;;20.50;99.90;;;;;;7386353;19;20146;-78
2022/10/28 12:44:19;;;;;;;5.93;2.17;;;20.60;99.90;;;;;;7388531;19;20159;-78
2022/10/28 12:47:04;;;;;;;11.48;3.22;;;20.70;99.90;;;;;;7387403;19;20143;-79
2022/10/28 12:49:47;;;;;;;5.93;2.90;;;20.70;99.90;;;;;;7387568;19;20131;-76
2022/10/28 12:52:40;;;;;;;8.68;3.13;;;20.80;99.90;;;;;;7388240;19;20489;-79
2022/10/28 12:55:16;;;;;;;7.32;2.88;;;20.90;99.90;;;;;;7387979;19;20608;-78
2022/10/28 12:58:24;;;;;;;9.93;4.30;;;21.10;99.90;;;;;;7387617;19;20524;-77
2022/10/28 13:00:56;;;;;;;6.72;3.20;;;21.10;99.90;;;;;;7387775;19;20134;-77
2022/10/28 13:03:22;;;;;;;7.57;2.88;;;21.10;99.90;;;;;;7393383;19;20167;-76
2022/10/28 13:06:10;;;;;;;8.10;2.88;;;21.20;99.90;;;;;;7392221;19;20270;-76
2022/10/28 13:08:48;;;;;;;6.90;2.42;;;21.20;99.90;;;;;;7391134;19;20166;-77
2022/10/28 13:11:26;;;;;;;5.65;2.50;;;21.20;99.90;;;;;;7393582;19;20149;-77